Latest Weather Observations for South Channel Island

IDV60801

Issued at 4:02 pm EST Friday 28 April 2017 (issued every 30 minutes, with the page automatically refreshed every 10 minutes)

About weather observations | Map of weather stations | Latest weather observations for VIC | Other Formats
Station Details ID: 086344 Name: SOUTH CHANNEL ISLAND Lat: -38.31 Lon: 144.80 Height: 9.0 m
Data from the previous 72 hours. | See also: Recent months for locations in Victoria
Date/Time
EST
Temp
°C
App
Temp
°C
Dew
Point
°C
Rel
Hum
%
Delta-T
°C
Wind Press
QNH
hPa
Press
MSL
hPa
Rain since
9am
mm
Dir  Spd
km/h
Gust
km/h
Spd
kts
Gust
kts
28/04:00pm - - - - - W 30 35 16 19 - - -
28/03:30pm - - - - - W 28 30 15 16 - - -
28/03:00pm - - - - - W 26 30 14 16 - - -
28/02:30pm - - - - - WNW 28 30 15 16 - - -
28/02:00pm - - - - - WNW 30 33 16 18 - - -
28/01:30pm - - - - - W 30 33 16 18 - - -
28/01:00pm - - - - - W 37 44 20 24 - - -
28/12:30pm - - - - - W 35 41 19 22 - - -
28/12:00pm - - - - - W 30 33 16 18 - - -
28/11:30am - - - - - W 35 39 19 21 - - -
28/11:00am - - - - - WNW 33 39 18 21 - - -
28/10:30am - - - - - WNW 35 41 19 22 - - -
28/10:00am - - - - - WNW 35 41 19 22 - - -
28/09:30am - - - - - WNW 28 35 15 19 - - -
28/09:00am - - - - - WNW 33 39 18 21 - - -
28/08:30am - - - - - WNW 32 37 17 20 - - -
28/08:00am - - - - - NW 32 37 17 20 - - -
28/07:30am - - - - - WNW 33 39 18 21 - - -
28/07:00am - - - - - WNW 35 39 19 21 - - -
28/06:30am - - - - - WNW 41 48 22 26 - - -
28/06:00am - - - - - WNW 39 44 21 24 - - -
28/05:30am - - - - - WNW 37 46 20 25 - - -
28/05:00am - - - - - WNW 37 43 20 23 - - -
28/04:30am - - - - - WNW 39 44 21 24 - - -
28/04:00am - - - - - WNW 35 39 19 21 - - -
28/03:30am - - - - - WNW 37 43 20 23 - - -
28/03:00am - - - - - WNW 35 41 19 22 - - -
28/02:30am - - - - - WNW 35 43 19 23 - - -
28/02:00am - - - - - WNW 37 41 20 22 - - -
28/01:30am - - - - - WNW 33 39 18 21 - - -
28/01:00am - - - - - WNW 33 39 18 21 - - -
28/12:30am - - - - - NW 33 39 18 21 - - -
28/12:00am - - - - - WNW 32 39 17 21 - - -
 
Date/Time
EST
Temp
°C
App
Temp
°C
Dew
Point
°C
Rel
Hum
%
Delta-T
°C
Wind Press
QNH
hPa
Press
MSL
hPa
Rain since
9am
mm
Dir  Spd
km/h
Gust
km/h
Spd
kts
Gust
kts
27/11:30pm - - - - - WNW 33 39 18 21 - - -
27/11:00pm - - - - - WNW 32 35 17 19 - - -
27/10:30pm - - - - - WNW 30 35 16 19 - - -
27/10:00pm - - - - - WNW 32 35 17 19 - - -
27/09:30pm - - - - - WNW 30 35 16 19 - - -
27/09:00pm - - - - - WNW 26 30 14 16 - - -
27/08:30pm - - - - - WNW 24 30 13 16 - - -
27/08:00pm - - - - - WNW 26 30 14 16 - - -
27/07:30pm - - - - - WNW 24 28 13 15 - - -
27/07:00pm - - - - - NW 26 30 14 16 - - -
27/06:30pm - - - - - NW 17 22 9 12 - - -
27/06:00pm - - - - - N 9 13 5 7 - - -
27/05:30pm - - - - - NE 6 9 3 5 - - -
27/05:00pm - - - - - SSE 13 19 7 10 - - -
27/04:30pm - - - - - SSW 11 19 6 10 - - -
27/04:00pm - - - - - S 13 17 7 9 - - -
27/03:30pm - - - - - SW 24 28 13 15 - - -
27/03:00pm - - - - - WSW 11 13 6 7 - - -
27/02:30pm - - - - - SSW 22 33 12 18 - - -
27/02:00pm - - - - - SSW 20 30 11 16 - - -
27/01:30pm - - - - - SSW 28 35 15 19 - - -
27/01:00pm - - - - - SW 28 35 15 19 - - -
27/12:30pm - - - - - SSW 37 43 20 23 - - -
27/12:00pm - - - - - SW 35 41 19 22 - - -
27/11:30am - - - - - SW 33 41 18 22 - - -
27/11:00am - - - - - SSW 35 41 19 22 - - -
27/10:30am - - - - - SSW 33 39 18 21 - - -
27/10:00am - - - - - SSW 33 39 18 21 - - -
27/09:30am - - - - - SSW 37 44 20 24 - - -
27/09:00am - - - - - S 35 44 19 24 - - -
27/08:45am - - - - - SSW 37 44 20 24 - - -
27/08:30am - - - - - SW 35 43 19 23 - - -
27/08:17am - - - - - SW 39 48 21 26 - - -
27/08:00am - - - - - SSW 35 43 19 23 - - -
27/07:30am - - - - - SSW 35 43 19 23 - - -
27/07:00am - - - - - SSW 39 46 21 25 - - -
27/06:30am - - - - - SSW 37 44 20 24 - - -
27/06:00am - - - - - SSW 30 41 16 22 - - -
27/05:30am - - - - - SSW 35 43 19 23 - - -
27/05:00am - - - - - S 35 43 19 23 - - -
27/04:30am - - - - - S 35 44 19 24 - - -
27/04:00am - - - - - S 26 30 14 16 - - -
27/03:30am - - - - - SW 33 44 18 24 - - -
27/03:23am - - - - - SSW 37 44 20 24 - - -
27/03:00am - - - - - SSW 44 56 24 30 - - -
27/02:45am - - - - - SSW 33 52 18 28 - - -
27/02:30am - - - - - SW 43 54 23 29 - - -
27/02:19am - - - - - SSW 44 56 24 30 - - -
27/02:00am - - - - - S 37 48 20 26 - - -
27/01:49am - - - - - S 41 54 22 29 - - -
27/01:30am - - - - - SSW 50 61 27 33 - - -
27/01:00am - - - - - SSW 44 54 24 29 - - -
27/12:30am - - - - - SSW 46 56 25 30 - - -
27/12:00am - - - - - SSW 46 56 25 30 - - -
 
Date/Time
EST
Temp
°C
App
Temp
°C
Dew
Point
°C
Rel
Hum
%
Delta-T
°C
Wind Press
QNH
hPa
Press
MSL
hPa
Rain since
9am
mm
Dir  Spd
km/h
Gust
km/h
Spd
kts
Gust
kts
26/11:30pm - - - - - SSW 46 54 25 29 - - -
26/11:00pm - - - - - SSW 43 50 23 27 - - -
26/10:30pm - - - - - SSW 44 57 24 31 - - -
26/10:00pm - - - - - SSW 48 56 26 30 - - -
26/09:30pm - - - - - SSW 46 54 25 29 - - -
26/09:00pm - - - - - SSW 46 59 25 32 - - -
26/08:30pm - - - - - SSW 44 54 24 29 - - -
26/08:00pm - - - - - SSW 43 52 23 28 - - -
26/07:30pm - - - - - SW 39 54 21 29 - - -
26/07:19pm - - - - - SSW 41 59 22 32 - - -
26/07:00pm - - - - - SSW 44 56 24 30 - - -
26/06:30pm - - - - - WSW 44 67 24 36 - - -
26/06:08pm - - - - - SW 48 70 26 38 - - -
26/06:00pm - - - - - SW 44 59 24 32 - - -
26/05:40pm - - - - - SW 44 63 24 34 - - -
26/05:30pm - - - - - SW 46 57 25 31 - - -
26/05:00pm - - - - - SW 46 72 25 39 - - -
26/04:51pm - - - - - SW 48 70 26 38 - - -
26/04:48pm - - - - - SW 48 67 26 36 - - -
26/04:39pm - - - - - SW 61 80 33 43 - - -
26/04:36pm - - - - - SW 59 80 32 43 - - -
26/04:32pm - - - - - SW 50 70 27 38 - - -
26/04:30pm - - - - - SSW 48 59 26 32 - - -
26/04:00pm - - - - - SW 52 59 28 32 - - -
26/03:30pm - - - - - SW 54 63 29 34 - - -
26/03:00pm - - - - - SW 50 63 27 34 - - -
26/02:30pm - - - - - SW 56 65 30 35 - - -
26/02:11pm - - - - - SSW 46 65 25 35 - - -
26/02:00pm - - - - - SSW 48 63 26 34 - - -
26/01:41pm - - - - - SW 52 70 28 38 - - -
26/01:30pm - - - - - SW 46 54 25 29 - - -
26/01:00pm - - - - - SSW 57 70 31 38 - - -
26/12:41pm - - - - - SSW 56 76 30 41 - - -
26/12:30pm - - - - - SSW 50 61 27 33 - - -
26/12:00pm - - - - - SSW 56 65 30 35 - - -
26/11:30am - - - - - SSW 56 63 30 34 - - -
26/11:00am - - - - - SSW 54 65 29 35 - - -
26/10:30am - - - - - SSW 54 69 29 37 - - -
26/10:00am - - - - - SSW 59 74 32 40 - - -
26/09:30am - - - - - SSW 59 74 32 40 - - -
26/09:00am - - - - - SSW 61 72 33 39 - - -
26/08:30am - - - - - SSW 59 72 32 39 - - -
26/08:00am - - - - - SSW 59 72 32 39 - - -
26/07:30am - - - - - SSW 56 63 30 34 - - -
26/07:00am - - - - - SSW 54 63 29 34 - - -
26/06:44am - - - - - SSW 48 69 26 37 - - -
26/06:36am - - - - - SW 33 54 18 29 - - -
26/06:30am - - - - - SW 33 43 18 23 - - -
26/06:19am - - - - - SW 50 76 27 41 - - -
26/06:06am - - - - - SW 35 83 19 45 - - -
26/06:05am - - - - - SSW 32 83 17 45 - - -
26/06:04am - - - - - SSW 30 50 16 27 - - -
26/06:00am - - - - - SSW 28 32 15 17 - - -
26/05:30am - - - - - SW 43 52 23 28 - - -
26/05:00am - - - - - SW 48 61 26 33 - - -
26/04:30am - - - - - SSW 52 65 28 35 - - -
26/04:14am - - - - - SW 57 76 31 41 - - -
26/04:00am - - - - - SSW 59 76 32 41 - - -
26/03:32am - - - - - SSW 52 70 28 38 - - -
26/03:30am - - - - - SSW 52 67 28 36 - - -
26/03:00am - - - - - SSW 57 70 31 38 - - -
26/02:53am - - - - - SW 50 70 27 38 - - -
26/02:47am - - - - - W 43 61 23 33 - - -
26/02:46am - - - - - W 41 59 22 32 - - -
26/02:42am - - - - - WNW 43 59 23 32 - - -
26/02:30am - - - - - NW 37 48 20 26 - - -
26/02:00am - - - - - NW 35 43 19 23 - - -
26/01:30am - - - - - NW 39 46 21 25 - - -
26/01:00am - - - - - NW 39 50 21 27 - - -
26/12:30am - - - - - NW 35 44 19 24 - - -
26/12:00am - - - - - WNW 33 39 18 21 - - -
 
Date/Time
EST
Temp
°C
App
Temp
°C
Dew
Point
°C
Rel
Hum
%
Delta-T
°C
Wind Press
QNH
hPa
Press
MSL
hPa
Rain since
9am
mm
Dir  Spd
km/h
Gust
km/h
Spd
kts
Gust
kts
25/11:30pm - - - - - WNW 33 41 18 22 - - -
25/11:00pm - - - - - WNW 30 37 16 20 - - -
25/10:30pm - - - - - WNW 37 44 20 24 - - -
25/10:00pm - - - - - WNW 39 48 21 26 - - -
25/09:30pm - - - - - WNW 44 56 24 30 - - -
25/09:16pm - - - - - NW 41 56 22 30 - - -
25/09:00pm - - - - - NNW 33 46 18 25 - - -
25/08:59pm - - - - - NNW 33 46 18 25 - - -
25/08:30pm - - - - - N 32 35 17 19 - - -
25/08:00pm - - - - - NNE 28 33 15 18 - - -
25/07:30pm - - - - - NNE 26 30 14 16 - - -
25/07:00pm - - - - - NNE 22 26 12 14 - - -
25/06:30pm - - - - - NNW 4 9 2 5 - - -
25/06:00pm - - - - - WSW 7 11 4 6 - - -
25/05:30pm - - - - - SW 7 9 4 5 - - -
25/05:00pm - - - - - W 7 9 4 5 - - -
25/04:30pm - - - - - SW 13 13 7 7 - - -

Other Formats:

Comma delimited format used in spreadsheet applications
http://www.bom.gov.au/fwo/IDV60801/IDV60801.94853.axf

JavaScript Object Notation format (JSON) in row-major order
http://www.bom.gov.au/fwo/IDV60801/IDV60801.94853.json